Time;durP1;ratioP1;P1;durP2;ratioP2;P2;SDS_P1;SDS_P2;PMS_P1;PMS_P2;Temp;Humidity;BMP_temperature;BMP_pressure;BME280_temperature;BME280_humidity;BME280_pressure;Samples;Min_cycle;Max_cycle;Signal;HPM_P1;HPM_P2
2022/07/05 00:01:24;;;;;;;5.93;1.73;;;;;;;;;;10326485;28;20057;-64
2022/07/05 00:06:25;;;;;;;5.18;1.92;;;;;;;;;;10324063;28;20077;-62
2022/07/05 00:11:26;;;;;;;4.70;1.38;;;;;;;;;;10321786;28;20117;-63
2022/07/05 00:16:26;;;;;;;5.68;1.80;;;;;;;;;;10319843;28;20034;-64
2022/07/05 00:21:27;;;;;;;5.00;1.55;;;;;;;;;;10323996;28;20039;-64
2022/07/05 00:26:28;;;;;;;5.00;1.42;;;;;;;;;;10317850;28;20042;-60
2022/07/05 00:31:28;;;;;;;9.48;1.75;;;;;;;;;;10307002;28;20393;-61
2022/07/05 00:36:29;;;;;;;4.82;1.45;;;;;;;;;;10325297;28;20034;-64
2022/07/05 00:41:30;;;;;;;2.67;1.55;;;;;;;;;;10321558;28;20046;-63
2022/07/05 00:46:31;;;;;;;4.07;1.23;;;;;;;;;;10317130;28;20082;-63
2022/07/05 00:51:34;;;;;;;2.80;1.30;;;;;;;;;;10318282;28;20485;-64
2022/07/05 00:56:35;;;;;;;4.85;1.40;;;;;;;;;;10318164;28;20034;-65
2022/07/05 01:01:36;;;;;;;3.10;1.15;;;;;;;;;;10309310;28;20478;-65
2022/07/05 01:06:36;;;;;;;4.40;1.45;;;;;;;;;;10318754;28;20034;-65
2022/07/05 01:11:37;;;;;;;4.20;1.08;;;;;;;;;;10308825;28;20044;-64
2022/07/05 01:16:38;;;;;;;2.05;1.13;;;;;;;;;;10320717;28;20033;-65
2022/07/05 01:21:47;;;;;;;2.83;1.58;;;;;;;;;;10312933;28;20118;-65
2022/07/05 01:26:50;;;;;;;5.43;1.33;;;;;;;;;;10317807;28;20523;-60
2022/07/05 01:31:50;;;;;;;2.35;0.95;;;;;;;;;;10321721;28;20061;-65
2022/07/05 01:36:51;;;;;;;2.55;0.98;;;;;;;;;;10308844;28;20461;-64
2022/07/05 01:41:52;;;;;;;4.70;1.17;;;;;;;;;;10318552;28;20030;-66
2022/07/05 01:46:58;;;;;;;1.73;1.05;;;;;;;;;;10319480;28;20394;-66
2022/07/05 01:52:08;;;;;;;3.40;1.02;;;;;;;;;;10306779;28;20033;-67
2022/07/05 01:57:09;;;;;;;5.32;1.08;;;;;;;;;;10313558;28;20114;-63
2022/07/05 02:02:10;;;;;;;1.23;1.00;;;;;;;;;;10308783;28;20030;-68
2022/07/05 02:07:11;;;;;;;2.28;1.10;;;;;;;;;;10306485;28;20034;-65
2022/07/05 02:12:11;;;;;;;2.95;1.10;;;;;;;;;;10315350;28;20063;-65
2022/07/05 02:17:12;;;;;;;2.15;0.98;;;;;;;;;;10298465;28;20027;-66
2022/07/05 02:22:12;;;;;;;1.77;0.80;;;;;;;;;;10290097;28;20038;-68
2022/07/05 02:27:13;;;;;;;2.15;0.90;;;;;;;;;;10325562;28;20046;-63
2022/07/05 02:32:14;;;;;;;5.25;1.15;;;;;;;;;;10310378;28;20035;-64
2022/07/05 02:37:14;;;;;;;1.25;0.70;;;;;;;;;;10303482;28;20023;-63
2022/07/05 02:42:15;;;;;;;1.40;0.77;;;;;;;;;;10309084;28;20061;-65
2022/07/05 02:47:15;;;;;;;2.67;0.90;;;;;;;;;;10320460;28;20031;-65
2022/07/05 02:52:16;;;;;;;1.15;0.98;;;;;;;;;;10316047;28;20026;-65
2022/07/05 02:57:16;;;;;;;2.17;1.20;;;;;;;;;;10318243;28;20035;-66
2022/07/05 03:02:17;;;;;;;1.98;1.08;;;;;;;;;;10308302;28;20041;-64
2022/07/05 03:07:18;;;;;;;0.88;0.75;;;;;;;;;;10312298;28;20057;-66
2022/07/05 03:12:18;;;;;;;4.22;1.00;;;;;;;;;;10305705;28;20384;-64
2022/07/05 03:17:19;;;;;;;1.73;0.90;;;;;;;;;;10310459;28;20030;-64
2022/07/05 03:22:20;;;;;;;5.63;1.10;;;;;;;;;;10302774;28;20039;-62
2022/07/05 03:27:20;;;;;;;2.15;1.20;;;;;;;;;;10313544;28;20054;-66
2022/07/05 03:32:21;;;;;;;1.20;0.90;;;;;;;;;;10311230;28;20070;-65
2022/07/05 03:37:22;;;;;;;3.08;0.70;;;;;;;;;;10293293;28;20034;-66
2022/07/05 03:42:23;;;;;;;1.27;0.77;;;;;;;;;;10302601;28;20367;-64
2022/07/05 03:47:24;;;;;;;7.43;1.20;;;;;;;;;;10314385;28;20027;-64
2022/07/05 03:52:24;;;;;;;9.10;1.48;;;;;;;;;;10312915;28;20035;-63
2022/07/05 03:57:25;;;;;;;1.10;0.90;;;;;;;;;;10300918;28;20108;-65
2022/07/05 04:02:25;;;;;;;1.38;0.80;;;;;;;;;;10313077;28;20490;-63
2022/07/05 04:07:26;;;;;;;2.03;0.93;;;;;;;;;;10313382;28;20031;-66
2022/07/05 04:12:27;;;;;;;1.63;0.98;;;;;;;;;;10301087;28;20031;-65
2022/07/05 04:17:29;;;;;;;2.65;1.15;;;;;;;;;;10314696;28;20030;-66
2022/07/05 04:22:30;;;;;;;3.63;1.30;;;;;;;;;;10308369;28;20121;-67
2022/07/05 04:27:30;;;;;;;1.83;0.90;;;;;;;;;;10319336;28;20049;-67
2022/07/05 04:32:31;;;;;;;1.65;0.70;;;;;;;;;;10327058;28;20029;-66
2022/07/05 04:37:32;;;;;;;1.35;1.00;;;;;;;;;;10312384;28;20473;-64
2022/07/05 04:42:33;;;;;;;2.53;1.15;;;;;;;;;;10327871;28;20363;-66
2022/07/05 04:47:37;;;;;;;0.95;0.88;;;;;;;;;;10316748;28;20030;-65
2022/07/05 04:52:37;;;;;;;1.17;0.90;;;;;;;;;;10315957;28;20418;-67
2022/07/05 04:57:42;;;;;;;1.30;1.00;;;;;;;;;;10325014;28;20026;-65
2022/07/05 05:02:42;;;;;;;5.10;1.10;;;;;;;;;;10312372;28;20030;-63
2022/07/05 05:07:44;;;;;;;1.30;1.00;;;;;;;;;;10317843;28;20043;-62
2022/07/05 05:12:45;;;;;;;7.65;1.20;;;;;;;;;;10327939;28;20120;-63
2022/07/05 05:17:46;;;;;;;9.68;1.20;;;;;;;;;;10310613;28;20536;-56
2022/07/05 05:28:00;;;;;;;4.75;1.80;;;;;;;;;;10363202;28;20073;-59
2022/07/05 05:33:01;;;;;;;5.57;1.52;;;;;;;;;;10366614;28;20140;-58
2022/07/05 05:38:03;;;;;;;3.85;1.42;;;;;;;;;;10359494;28;20493;-58
2022/07/05 05:43:04;;;;;;;6.18;1.60;;;;;;;;;;10364886;28;20030;-57
2022/07/05 05:48:05;;;;;;;8.15;1.67;;;;;;;;;;10360503;28;20050;-61
2022/07/05 05:53:06;;;;;;;2.45;1.58;;;;;;;;;;10361720;28;20128;-54
2022/07/05 05:58:20;;;;;;;8.70;1.67;;;;;;;;;;10353400;28;20591;-48
2022/07/05 06:03:26;;;;;;;7.38;2.22;;;;;;;;;;10358384;28;20075;-61
2022/07/05 06:08:27;;;;;;;9.63;1.80;;;;;;;;;;10357141;28;20512;-51
2022/07/05 06:13:28;;;;;;;13.32;2.20;;;;;;;;;;10347681;28;20113;-54
2022/07/05 06:18:28;;;;;;;14.23;2.40;;;;;;;;;;10333437;28;20018;-53
2022/07/05 06:23:29;;;;;;;18.58;2.38;;;;;;;;;;10344403;28;20102;-52
2022/07/05 06:28:31;;;;;;;15.18;2.70;;;;;;;;;;10348989;28;20277;-53
2022/07/05 06:33:32;;;;;;;10.27;2.45;;;;;;;;;;10354809;28;20477;-55
2022/07/05 06:38:33;;;;;;;14.98;1.85;;;;;;;;;;10361559;28;20037;-54
2022/07/05 06:43:33;;;;;;;10.70;2.10;;;;;;;;;;10358432;28;20038;-52
2022/07/05 06:48:34;;;;;;;6.65;1.90;;;;;;;;;;10362400;28;20034;-50
2022/07/05 06:53:34;;;;;;;13.80;2.38;;;;;;;;;;10337204;28;20369;-53
2022/07/05 06:58:35;;;;;;;7.43;2.15;;;;;;;;;;10353611;28;20312;-55
2022/07/05 07:03:35;;;;;;;5.80;1.92;;;;;;;;;;10347944;28;20037;-55
2022/07/05 07:13:55;;;;;;;8.52;1.90;;;;;;;;;;10358331;28;20049;-53
2022/07/05 07:18:56;;;;;;;7.35;2.20;;;;;;;;;;10361511;28;20018;-54
2022/07/05 07:23:57;;;;;;;7.68;2.22;;;;;;;;;;10338202;28;20125;-55
2022/07/05 07:28:57;;;;;;;5.40;1.95;;;;;;;;;;10350704;28;20033;-53
2022/07/05 07:33:58;;;;;;;2.85;1.58;;;;;;;;;;10365278;28;20049;-54
2022/07/05 07:38:58;;;;;;;9.68;1.98;;;;;;;;;;10358967;28;20030;-55
2022/07/05 07:43:59;;;;;;;6.80;1.77;;;;;;;;;;10365437;28;20470;-54
2022/07/05 07:49:00;;;;;;;5.05;1.85;;;;;;;;;;10370448;28;20397;-55
2022/07/05 07:54:00;;;;;;;4.85;1.58;;;;;;;;;;10371594;28;20026;-55
2022/07/05 07:59:01;;;;;;;4.47;1.75;;;;;;;;;;10373233;28;20026;-57
2022/07/05 08:04:02;;;;;;;4.47;1.40;;;;;;;;;;10372501;28;20096;-51
2022/07/05 08:09:02;;;;;;;3.28;1.88;;;;;;;;;;10363516;28;20473;-55
2022/07/05 08:14:03;;;;;;;3.60;1.40;;;;;;;;;;10369637;28;20112;-55
2022/07/05 08:24:23;;;;;;;1.73;1.30;;;;;;;;;;10369961;28;20050;-53
2022/07/05 08:29:23;;;;;;;3.92;1.85;;;;;;;;;;10363812;28;20038;-54
2022/07/05 08:34:24;;;;;;;3.25;1.40;;;;;;;;;;10358073;28;20026;-55
2022/07/05 08:39:25;;;;;;;6.05;1.80;;;;;;;;;;10352809;28;20038;-53
2022/07/05 08:44:29;;;;;;;1.48;1.10;;;;;;;;;;10334961;28;20033;-58
2022/07/05 08:49:33;;;;;;;2.80;1.38;;;;;;;;;;10335976;28;20026;-53
2022/07/05 08:54:36;;;;;;;3.53;1.50;;;;;;;;;;10335819;28;20021;-54
2022/07/05 08:59:36;;;;;;;3.55;1.52;;;;;;;;;;10368198;28;20022;-56
2022/07/05 09:04:47;;;;;;;9.60;2.05;;;;;;;;;;10352305;28;20041;-53
2022/07/05 09:09:51;;;;;;;8.18;1.92;;;;;;;;;;10355828;28;20461;-56
2022/07/05 09:14:54;;;;;;;5.63;2.05;;;;;;;;;;10349242;28;20033;-54
2022/07/05 09:20:16;;;;;;;13.13;2.13;;;;;;;;;;10360146;28;20104;-54
2022/07/05 09:25:31;;;;;;;14.80;2.05;;;;;;;;;;10360972;28;20042;-55
2022/07/05 09:30:39;;;;;;;12.85;2.08;;;;;;;;;;10357310;28;20035;-53
2022/07/05 09:35:56;;;;;;;12.10;2.08;;;;;;;;;;10362018;28;20118;-56
2022/07/05 09:41:00;;;;;;;9.57;2.20;;;;;;;;;;10340877;28;20068;-55
2022/07/05 09:46:03;;;;;;;7.43;1.80;;;;;;;;;;10331822;28;20035;-55
2022/07/05 09:51:13;;;;;;;6.35;2.10;;;;;;;;;;10341859;28;20056;-59
2022/07/05 09:56:17;;;;;;;7.20;1.77;;;;;;;;;;10340760;28;20053;-55
2022/07/05 10:01:31;;;;;;;8.02;2.50;;;;;;;;;;10334236;28;20034;-54
2022/07/05 10:06:32;;;;;;;6.38;1.85;;;;;;;;;;10341647;28;20084;-54
2022/07/05 10:11:34;;;;;;;7.35;1.65;;;;;;;;;;10334097;28;20577;-58
2022/07/05 10:16:34;;;;;;;8.60;2.15;;;;;;;;;;10333792;28;20481;-55
2022/07/05 10:21:35;;;;;;;5.43;1.98;;;;;;;;;;10353952;28;20022;-54
2022/07/05 10:26:36;;;;;;;5.22;2.05;;;;;;;;;;10347906;28;20046;-53
2022/07/05 10:31:38;;;;;;;4.82;1.55;;;;;;;;;;10363420;28;20116;-53
2022/07/05 10:36:39;;;;;;;3.90;1.85;;;;;;;;;;10365119;28;20037;-56
2022/07/05 10:41:41;;;;;;;4.88;1.85;;;;;;;;;;10359719;28;20044;-54
2022/07/05 10:46:43;;;;;;;2.85;1.48;;;;;;;;;;10363151;28;20040;-57
2022/07/05 10:51:43;;;;;;;5.28;1.95;;;;;;;;;;10364615;28;20556;-55
2022/07/05 10:57:23;;;;;;;5.72;1.90;;;;;;;;;;10361655;28;20092;-55
2022/07/05 11:02:23;;;;;;;6.60;1.80;;;;;;;;;;10364980;28;20029;-54
2022/07/05 11:08:05;;;;;;;4.18;1.75;;;;;;;;;;10362865;28;20025;-58
2022/07/05 11:13:43;;;;;;;7.85;1.67;;;;;;;;;;10358539;28;20083;-56
2022/07/05 11:18:44;;;;;;;4.18;1.80;;;;;;;;;;10235992;28;20035;-58
2022/07/05 11:23:44;;;;;;;25.38;3.78;;;;;;;;;;10241016;29;20482;-54
2022/07/05 11:28:47;;;;;;;22.83;3.13;;;;;;;;;;10240905;29;20038;-55
2022/07/05 11:33:50;;;;;;;11.32;2.78;;;;;;;;;;10241602;29;20587;-57
2022/07/05 11:39:15;;;;;;;9.82;2.35;;;;;;;;;;10246670;29;20118;-55
2022/07/05 11:44:16;;;;;;;14.75;2.25;;;;;;;;;;10242698;29;20565;-59
2022/07/05 11:49:22;;;;;;;11.25;2.13;;;;;;;;;;10255669;28;20157;-54
2022/07/05 11:54:25;;;;;;;13.90;2.40;;;;;;;;;;10372040;28;20028;-56
2022/07/05 11:59:26;;;;;;;4.55;1.92;;;;;;;;;;10372966;28;20038;-55
2022/07/05 12:04:29;;;;;;;8.13;2.10;;;;;;;;;;10356745;28;20038;-60
2022/07/05 12:14:52;;;;;;;8.32;1.80;;;;;;;;;;10363375;28;20104;-55
2022/07/05 12:19:54;;;;;;;12.25;2.47;;;;;;;;;;10356555;28;20034;-55
2022/07/05 12:24:57;;;;;;;7.85;2.20;;;;;;;;;;10362754;28;20618;-56
2022/07/05 12:29:59;;;;;;;7.07;2.00;;;;;;;;;;10370344;28;20030;-56
2022/07/05 12:35:02;;;;;;;11.57;1.80;;;;;;;;;;10355708;28;20046;-55
2022/07/05 12:40:08;;;;;;;4.97;1.83;;;;;;;;;;10335996;28;20022;-55
2022/07/05 12:45:16;;;;;;;8.93;2.10;;;;;;;;;;10349454;28;20030;-55
2022/07/05 12:50:17;;;;;;;5.03;1.80;;;;;;;;;;10349615;28;20030;-58
2022/07/05 13:00:37;;;;;;;5.20;2.10;;;;;;;;;;10346262;28;20034;-55
2022/07/05 13:05:38;;;;;;;2.38;1.48;;;;;;;;;;10351830;28;20022;-55
2022/07/05 13:10:46;;;;;;;7.95;2.20;;;;;;;;;;10339456;28;20030;-56
2022/07/05 13:15:47;;;;;;;8.65;1.90;;;;;;;;;;10336062;28;20117;-56
2022/07/05 13:20:49;;;;;;;3.47;1.90;;;;;;;;;;10345686;28;20030;-55
2022/07/05 13:25:50;;;;;;;3.38;2.10;;;;;;;;;;10354271;28;20042;-55
2022/07/05 13:30:51;;;;;;;9.48;2.05;;;;;;;;;;10366605;28;20489;-55
2022/07/05 13:35:51;;;;;;;11.68;2.08;;;;;;;;;;10347735;28;20389;-56
2022/07/05 13:40:52;;;;;;;7.43;1.85;;;;;;;;;;10362255;28;20033;-55
2022/07/05 13:45:52;;;;;;;4.97;1.60;;;;;;;;;;10355869;28;20492;-56
2022/07/05 13:50:53;;;;;;;11.70;1.88;;;;;;;;;;10367760;28;20026;-56
2022/07/05 13:55:53;;;;;;;6.85;1.80;;;;;;;;;;10355839;28;20596;-61
2022/07/05 14:00:54;;;;;;;3.50;1.63;;;;;;;;;;10362340;28;20366;-59
2022/07/05 14:05:55;;;;;;;4.70;1.90;;;;;;;;;;10357051;28;20026;-56
2022/07/05 14:11:01;;;;;;;4.70;1.95;;;;;;;;;;10356853;28;20034;-62
2022/07/05 14:16:01;;;;;;;5.97;1.88;;;;;;;;;;10365705;28;20342;-56
2022/07/05 14:21:03;;;;;;;12.65;2.40;;;;;;;;;;10367246;28;20025;-59
2022/07/05 14:26:04;;;;;;;16.77;2.75;;;;;;;;;;10366323;28;20421;-54
2022/07/05 14:31:04;;;;;;;7.80;2.42;;;;;;;;;;10366991;28;20042;-56
2022/07/05 14:36:05;;;;;;;12.70;2.20;;;;;;;;;;10347516;28;20034;-54
2022/07/05 14:41:06;;;;;;;6.50;2.13;;;;;;;;;;10338509;28;20037;-59
2022/07/05 14:46:07;;;;;;;7.45;2.08;;;;;;;;;;10363185;28;20033;-54
2022/07/05 14:51:08;;;;;;;8.23;2.20;;;;;;;;;;10332160;28;20068;-55
2022/07/05 14:56:09;;;;;;;4.88;1.88;;;;;;;;;;10330684;28;20478;-54
2022/07/05 15:01:10;;;;;;;5.13;2.30;;;;;;;;;;10339495;28;20018;-55
2022/07/05 15:06:11;;;;;;;10.88;2.50;;;;;;;;;;10356242;28;20046;-57
2022/07/05 15:11:12;;;;;;;5.10;2.00;;;;;;;;;;10353242;28;20468;-64
2022/07/05 15:16:12;;;;;;;10.07;2.38;;;;;;;;;;10339850;28;20029;-62
2022/07/05 15:21:13;;;;;;;6.03;1.95;;;;;;;;;;10346547;28;20041;-53
2022/07/05 15:26:14;;;;;;;10.30;2.88;;;;;;;;;;10351260;28;20535;-53
2022/07/05 15:31:24;;;;;;;4.97;1.90;;;;;;;;;;10357544;28;20041;-60
2022/07/05 15:36:27;;;;;;;5.93;2.05;;;;;;;;;;10349017;28;20077;-52
2022/07/05 15:41:30;;;;;;;3.92;1.95;;;;;;;;;;10352513;28;20077;-50
2022/07/05 15:51:50;;;;;;;6.38;2.38;;;;;;;;;;10364349;28;20046;-56
2022/07/05 15:56:51;;;;;;;9.73;2.40;;;;;;;;;;10344622;28;20539;-49
2022/07/05 16:01:52;;;;;;;6.88;2.30;;;;;;;;;;10339820;28;20413;-51
2022/07/05 16:06:52;;;;;;;5.03;2.13;;;;;;;;;;10351211;28;20037;-50
2022/07/05 16:11:53;;;;;;;7.13;2.00;;;;;;;;;;10370289;28;20492;-48
2022/07/05 16:16:53;;;;;;;5.55;2.28;;;;;;;;;;10369312;28;20481;-54
2022/07/05 16:21:55;;;;;;;8.20;2.60;;;;;;;;;;10359765;28;20026;-66
2022/07/05 16:26:56;;;;;;;8.25;2.47;;;;;;;;;;10371094;28;20133;-50
2022/07/05 16:31:57;;;;;;;7.28;2.08;;;;;;;;;;10351403;28;20052;-51
2022/07/05 16:36:58;;;;;;;8.40;2.40;;;;;;;;;;10358199;28;20037;-59
2022/07/05 16:41:59;;;;;;;8.70;2.28;;;;;;;;;;10350399;28;20050;-58
2022/07/05 16:47:00;;;;;;;4.55;1.73;;;;;;;;;;10338378;28;20532;-50
2022/07/05 16:52:00;;;;;;;4.88;2.08;;;;;;;;;;10347051;28;20076;-60
2022/07/05 16:57:01;;;;;;;5.18;2.05;;;;;;;;;;10349042;28;20052;-52
2022/07/05 17:02:03;;;;;;;6.15;2.15;;;;;;;;;;10353411;28;20108;-52
2022/07/05 17:07:04;;;;;;;9.23;2.25;;;;;;;;;;10365743;28;20037;-52
2022/07/05 17:12:05;;;;;;;15.18;2.42;;;;;;;;;;10368801;28;20389;-50
2022/07/05 17:17:05;;;;;;;25.58;3.38;;;;;;;;;;10361765;28;20052;-48
2022/07/05 17:22:06;;;;;;;20.98;3.05;;;;;;;;;;10355315;28;20089;-51
2022/07/05 17:27:06;;;;;;;15.80;2.95;;;;;;;;;;10356239;28;20048;-63
2022/07/05 17:32:07;;;;;;;13.52;2.08;;;;;;;;;;10356954;28;20037;-55
2022/07/05 17:37:08;;;;;;;13.55;2.75;;;;;;;;;;10363248;28;20029;-49
2022/07/05 17:42:09;;;;;;;13.38;2.40;;;;;;;;;;10361137;28;20156;-48
2022/07/05 17:47:11;;;;;;;12.90;2.17;;;;;;;;;;10367087;28;20033;-48
2022/07/05 17:52:12;;;;;;;5.45;2.20;;;;;;;;;;10363232;28;20084;-60
2022/07/05 17:57:12;;;;;;;5.35;2.00;;;;;;;;;;10365531;28;20088;-64
2022/07/05 18:02:13;;;;;;;12.88;2.03;;;;;;;;;;10337164;28;20030;-62
2022/07/05 18:07:13;;;;;;;5.47;1.73;;;;;;;;;;10340976;28;20049;-51
2022/07/05 18:12:14;;;;;;;4.13;1.75;;;;;;;;;;10346433;28;20026;-65
2022/07/05 18:17:15;;;;;;;10.73;1.83;;;;;;;;;;10340664;28;20627;-49
2022/07/05 18:22:16;;;;;;;4.47;1.58;;;;;;;;;;10345516;28;20406;-48
2022/07/05 18:27:16;;;;;;;7.72;2.17;;;;;;;;;;10342327;28;20095;-56
2022/07/05 18:32:17;;;;;;;2.72;1.45;;;;;;;;;;10348354;28;20036;-47
2022/07/05 18:37:17;;;;;;;8.40;1.50;;;;;;;;;;10363530;28;20034;-58
2022/07/05 18:42:18;;;;;;;5.90;1.90;;;;;;;;;;10362271;28;20033;-46
2022/07/05 18:47:18;;;;;;;4.55;1.60;;;;;;;;;;10346593;28;20609;-52
2022/07/05 18:52:19;;;;;;;6.90;1.65;;;;;;;;;;10342064;28;20037;-47
2022/07/05 18:57:20;;;;;;;3.60;1.50;;;;;;;;;;10340113;28;20109;-53
2022/07/05 19:02:20;;;;;;;6.57;1.27;;;;;;;;;;10333943;28;20092;-46
2022/07/05 19:18:00;;;;;;;7.55;1.40;;;;;;;;;;10354411;28;20582;-49
2022/07/05 19:23:01;;;;;;;6.22;1.65;;;;;;;;;;10361735;28;20033;-56
2022/07/05 19:28:04;;;;;;;2.83;1.40;;;;;;;;;;10342847;28;20052;-49
2022/07/05 19:33:04;;;;;;;7.25;1.63;;;;;;;;;;10347534;28;20034;-47
2022/07/05 19:38:05;;;;;;;3.63;1.25;;;;;;;;;;10349279;28;20030;-63
2022/07/05 19:43:06;;;;;;;7.20;1.95;;;;;;;;;;10352194;28;20038;-46
2022/07/05 19:48:35;;;;;;;3.33;1.40;;;;;;;;;;10356848;28;20030;-61
2022/07/05 19:53:44;;;;;;;4.63;1.40;;;;;;;;;;10351424;28;20053;-63
2022/07/05 19:58:50;;;;;;;3.05;1.20;;;;;;;;;;10359814;28;20017;-63
2022/07/05 20:03:50;;;;;;;3.80;1.15;;;;;;;;;;10341571;28;20172;-56
2022/07/05 20:08:55;;;;;;;3.85;1.40;;;;;;;;;;10362791;28;20084;-59
2022/07/05 20:13:56;;;;;;;4.22;1.20;;;;;;;;;;10363411;28;20219;-64
2022/07/05 20:18:59;;;;;;;10.85;1.60;;;;;;;;;;10352443;28;20462;-57
2022/07/05 20:24:16;;;;;;;3.30;1.30;;;;;;;;;;10364028;23;20177;-59
2022/07/05 20:29:17;;;;;;;3.35;1.23;;;;;;;;;;10364392;28;20034;-53
2022/07/05 20:34:27;;;;;;;5.40;1.35;;;;;;;;;;10374217;28;20176;-57
2022/07/05 20:39:38;;;;;;;2.92;1.13;;;;;;;;;;10371604;28;20068;-62
2022/07/05 20:44:44;;;;;;;4.07;1.40;;;;;;;;;;10369695;28;20037;-45
2022/07/05 20:50:05;;;;;;;11.30;1.20;;;;;;;;;;10345741;28;20041;-45
2022/07/05 20:55:06;;;;;;;9.35;1.45;;;;;;;;;;10351436;28;20017;-62
2022/07/05 21:00:08;;;;;;;6.05;1.17;;;;;;;;;;10344271;28;20018;-50
2022/07/05 21:05:09;;;;;;;8.85;1.90;;;;;;;;;;10350932;28;20041;-46
2022/07/05 21:10:10;;;;;;;2.95;1.20;;;;;;;;;;10351141;28;20501;-49
2022/07/05 21:15:12;;;;;;;6.03;1.52;;;;;;;;;;10357569;28;20030;-45
2022/07/05 21:20:18;;;;;;;1.20;0.95;;;;;;;;;;10353410;28;20116;-46
2022/07/05 21:25:19;;;;;;;2.10;0.98;;;;;;;;;;10366463;28;20065;-46
2022/07/05 21:30:20;;;;;;;9.95;1.33;;;;;;;;;;10382329;28;20021;-46
2022/07/05 21:35:20;;;;;;;6.25;1.20;;;;;;;;;;10383740;28;20030;-46
2022/07/05 21:40:21;;;;;;;3.88;1.40;;;;;;;;;;10386548;28;20030;-49
2022/07/05 21:45:22;;;;;;;3.63;0.95;;;;;;;;;;10356322;28;20389;-46
2022/07/05 21:50:22;;;;;;;2.13;0.93;;;;;;;;;;10359219;28;20030;-46
2022/07/05 21:55:23;;;;;;;1.55;1.00;;;;;;;;;;10356766;28;20084;-46
2022/07/05 22:05:45;;;;;;;2.20;1.10;;;;;;;;;;10369962;28;20038;-46
2022/07/05 22:10:46;;;;;;;4.60;1.25;;;;;;;;;;10382781;28;20022;-47
2022/07/05 22:15:47;;;;;;;2.40;1.20;;;;;;;;;;10385068;28;20047;-46
2022/07/05 22:20:47;;;;;;;2.65;1.23;;;;;;;;;;10380728;28;20494;-46
2022/07/05 22:25:49;;;;;;;2.58;0.98;;;;;;;;;;10375038;28;20056;-47
2022/07/05 22:30:49;;;;;;;3.22;1.27;;;;;;;;;;10382190;28;20120;-46
2022/07/05 22:35:50;;;;;;;4.82;1.20;;;;;;;;;;10378339;28;20456;-46
2022/07/05 22:40:51;;;;;;;2.42;1.08;;;;;;;;;;10389721;28;20481;-45
2022/07/05 22:45:52;;;;;;;3.45;1.23;;;;;;;;;;10388084;28;20033;-45
2022/07/05 22:50:52;;;;;;;10.85;1.40;;;;;;;;;;10377639;28;20022;-45
2022/07/05 22:55:53;;;;;;;4.85;1.67;;;;;;;;;;10378492;28;20113;-46
2022/07/05 23:00:54;;;;;;;3.58;1.17;;;;;;;;;;10372584;28;20497;-46
2022/07/05 23:05:55;;;;;;;2.40;1.20;;;;;;;;;;10371192;28;20108;-45
2022/07/05 23:10:55;;;;;;;2.58;1.00;;;;;;;;;;10368346;28;20129;-46
2022/07/05 23:15:56;;;;;;;8.10;1.27;;;;;;;;;;10363185;28;20543;-45
2022/07/05 23:20:57;;;;;;;5.00;1.42;;;;;;;;;;10376236;28;20480;-45
2022/07/05 23:25:58;;;;;;;2.35;1.20;;;;;;;;;;10385446;28;20132;-44
2022/07/05 23:30:59;;;;;;;3.33;1.10;;;;;;;;;;10388830;28;20029;-45
2022/07/05 23:35:59;;;;;;;1.17;0.95;;;;;;;;;;10377926;28;20363;-45
2022/07/05 23:41:00;;;;;;;4.13;1.25;;;;;;;;;;10389177;28;20088;-46
2022/07/05 23:46:00;;;;;;;3.30;1.05;;;;;;;;;;10391585;28;20033;-45
2022/07/05 23:51:01;;;;;;;5.70;1.10;;;;;;;;;;10391464;28;20047;-44
2022/07/05 23:56:02;;;;;;;1.95;1.15;;;;;;;;;;10388571;28;20489;-50
